createdAt,value
2023-02-06T00:00:14.975Z,19.20
2023-02-06T00:02:44.253Z,19.20
2023-02-06T00:05:12.229Z,19.30
2023-02-06T00:07:40.058Z,19.20
2023-02-06T00:10:08.992Z,19.20
2023-02-06T00:12:36.923Z,19.20
2023-02-06T00:15:05.088Z,19.20
2023-02-06T00:17:36.236Z,19.20
2023-02-06T00:20:06.534Z,19.20
2023-02-06T00:22:34.826Z,19.20
2023-02-06T00:25:02.819Z,19.20
2023-02-06T00:27:30.681Z,19.20
2023-02-06T00:29:58.610Z,19.10
2023-02-06T00:32:26.556Z,19.20
2023-02-06T00:34:54.556Z,19.20
2023-02-06T00:37:23.773Z,19.10
2023-02-06T00:39:51.654Z,19.20
2023-02-06T00:42:19.508Z,19.10
2023-02-06T00:44:47.391Z,19.10
2023-02-06T00:47:15.317Z,19.20
2023-02-06T00:49:43.193Z,19.10
2023-02-06T00:52:11.140Z,19.10
2023-02-06T00:54:40.350Z,19.10
2023-02-06T00:57:08.256Z,19.10
2023-02-06T00:59:36.097Z,19.10
2023-02-06T01:02:04.044Z,19.10
2023-02-06T01:04:31.956Z,19.10
2023-02-06T01:06:59.865Z,19.10
2023-02-06T01:09:27.781Z,19.10
2023-02-06T01:11:57.064Z,19.10
2023-02-06T01:14:24.994Z,19.10
2023-02-06T01:16:52.855Z,19.10
2023-02-06T01:19:20.737Z,19.10
2023-02-06T01:21:48.601Z,19.10
2023-02-06T18:49:12.091Z,18.30
2023-02-06T18:51:40.021Z,18.30
2023-02-06T18:54:09.896Z,18.30
2023-02-06T18:56:38.060Z,18.30
2023-02-06T18:59:06.830Z,18.40
2023-02-06T19:01:34.899Z,18.30
2023-02-06T19:04:03.033Z,18.30
2023-02-06T19:06:35.529Z,18.20
2023-02-06T19:09:06.915Z,18.20
2023-02-06T19:11:35.647Z,18.20
2023-02-06T19:14:03.926Z,18.20
2023-02-06T19:16:32.617Z,18.20
2023-02-06T19:19:01.505Z,18.20
2023-02-06T19:21:29.496Z,18.30
2023-02-06T19:24:00.164Z,18.30
2023-02-06T19:26:28.854Z,18.40
2023-02-06T19:28:57.126Z,18.40
2023-02-06T19:31:28.266Z,18.50
2023-02-06T19:33:57.673Z,18.50
2023-02-06T19:36:27.445Z,18.60
2023-02-06T19:38:56.641Z,18.60
2023-02-06T19:41:27.717Z,18.60
2023-02-06T19:43:56.996Z,18.60
2023-02-06T19:46:27.551Z,18.70
2023-02-06T19:48:56.723Z,18.70
2023-02-06T19:51:27.125Z,18.70
2023-02-06T19:53:56.734Z,18.70
2023-02-06T19:56:30.830Z,18.70
2023-02-06T19:59:00.599Z,18.60
2023-02-06T20:01:30.220Z,18.70
2023-02-06T20:03:59.144Z,18.70
2023-02-06T20:06:29.396Z,18.70
2023-02-06T20:08:57.982Z,18.70
2023-02-06T20:11:27.256Z,18.70
2023-02-06T20:13:55.755Z,18.70
2023-02-06T20:16:25.951Z,18.70
2023-02-06T20:18:54.413Z,18.70
2023-02-06T20:21:26.736Z,18.70
2023-02-06T20:23:55.468Z,18.80
2023-02-06T20:26:25.211Z,18.90
2023-02-06T20:28:55.030Z,18.90
2023-02-06T20:31:23.441Z,18.90
2023-02-06T20:33:52.050Z,18.90
2023-02-06T20:36:22.114Z,18.80
2023-02-06T20:38:52.359Z,18.80
2023-02-06T20:41:21.210Z,18.70
2023-02-06T20:43:49.159Z,18.60
2023-02-06T20:46:19.514Z,18.50
2023-02-06T20:48:53.111Z,18.50
2023-02-06T20:51:21.221Z,18.50
2023-02-06T20:53:49.108Z,18.50
2023-02-06T20:56:17.678Z,18.50
2023-02-06T20:58:45.650Z,18.50
2023-02-06T21:01:15.228Z,18.50
2023-02-06T21:03:45.534Z,18.50
2023-02-06T21:06:13.972Z,18.50
2023-02-06T21:08:42.636Z,18.50
2023-02-06T21:11:10.823Z,18.50
2023-02-06T21:13:41.201Z,18.50
2023-02-06T21:16:12.417Z,18.60
2023-02-06T21:18:42.743Z,18.60
2023-02-06T21:21:13.774Z,18.70
2023-02-06T21:23:43.405Z,18.70
2023-02-06T21:26:13.647Z,18.70
2023-02-06T21:28:42.393Z,18.70
2023-02-06T21:31:14.215Z,18.70
2023-02-06T21:33:42.234Z,18.70
2023-02-06T21:36:11.657Z,18.70
2023-02-06T21:38:40.297Z,18.70
2023-02-06T21:41:08.909Z,18.70
2023-02-06T21:43:37.044Z,18.60
2023-02-06T21:46:05.638Z,18.70
2023-02-06T21:48:33.858Z,18.70
2023-02-06T21:51:08.872Z,18.60
2023-02-06T21:53:40.373Z,18.70
2023-02-06T21:56:10.006Z,18.70
2023-02-06T21:58:38.126Z,18.70
2023-02-06T22:01:08.920Z,18.70
2023-02-06T22:03:37.132Z,18.60
2023-02-06T22:06:08.536Z,18.70
2023-02-06T22:08:38.711Z,18.60
2023-02-06T22:11:13.436Z,18.60
2023-02-06T22:13:42.611Z,18.60
2023-02-06T22:16:12.639Z,18.50
2023-02-06T22:18:40.930Z,18.40
2023-02-06T22:21:10.910Z,18.40
2023-02-06T22:23:40.535Z,18.40
2023-02-06T22:26:09.328Z,18.30
2023-02-06T22:28:37.690Z,18.30
2023-02-06T22:31:07.441Z,18.30
2023-02-06T22:33:35.714Z,18.30
2023-02-06T22:36:05.567Z,18.30
2023-02-06T22:38:33.882Z,18.30
2023-02-06T22:41:05.093Z,18.30
2023-02-06T22:43:35.211Z,18.30
2023-02-06T22:46:03.263Z,18.30
2023-02-06T22:48:31.182Z,18.30
2023-02-06T22:51:05.227Z,18.30
2023-02-06T22:53:33.166Z,18.30
2023-02-06T22:56:22.743Z,18.30
2023-02-06T22:58:51.685Z,18.30
2023-02-06T23:01:22.222Z,18.30
2023-02-06T23:03:52.721Z,18.30
2023-02-06T23:06:21.162Z,18.30
2023-02-06T23:08:49.080Z,18.30
2023-02-06T23:11:18.614Z,18.40
2023-02-06T23:13:46.675Z,18.30
2023-02-06T23:16:14.670Z,18.30
2023-02-06T23:18:42.532Z,18.30
2023-02-06T23:21:12.510Z,18.40
2023-02-06T23:23:41.104Z,18.30
2023-02-06T23:26:10.482Z,18.40
2023-02-06T23:28:40.539Z,18.50
2023-02-06T23:31:09.668Z,18.50
2023-02-06T23:33:37.661Z,18.50
2023-02-06T23:36:07.230Z,18.40
2023-02-06T23:38:35.437Z,18.40
2023-02-06T23:41:08.475Z,18.40
2023-02-06T23:43:36.554Z,18.40
2023-02-06T23:46:06.949Z,18.30
2023-02-06T23:48:35.256Z,18.30
2023-02-06T23:51:03.505Z,18.40
2023-02-06T23:53:31.819Z,18.50
2023-02-06T23:55:59.837Z,18.50
2023-02-06T23:58:27.918Z,18.40
